SJX846 RCTP-RJFT
Flight info
| Callsign | SJX846 |
|---|---|
| Flight time | 1h 38m |
| Altitude | 39000 |
| Route | MOLKA1B MOLKA M750 MOMPA Y25 KOSHI Y501 SASIK Y14 HINAG |
| Aircraft | A339/H-SADE1E2E3GHIJ3J5M1P2RWXY/LB2D1 |
Departure
| Time | 2026-04-22 20:50 |
|---|---|
| Airport | Taiwan Taoyuan International Airport (RCTP) |
Arrival
| Time | 2026-04-22 22:29 |
|---|---|
| Airport | Kumamoto Airport (RJFT) |
| Time | Latitude | Longitude | Altitude | Speed | Heading |
|---|---|---|---|---|---|
| 2026-04-22 20:41 | 25.08022 | 121.23973 | 124 ft | 0 kts | 319° |
| 2026-04-22 20:42 | 25.08013 | 121.23982 | 124 ft | 2 kts | 319° |
| 2026-04-22 20:42 | 25.08001 | 121.23993 | 124 ft | 2 kts | 319° |
| 2026-04-22 20:42 | 25.07990 | 121.24004 | 124 ft | 2 kts | 319° |
| 2026-04-22 20:42 | 25.07978 | 121.24014 | 124 ft | 2 kts | 319° |
| 2026-04-22 20:43 | 25.07966 | 121.24025 | 124 ft | 2 kts | 332° |
| 2026-04-22 20:43 | 25.07953 | 121.24031 | 124 ft | 2 kts | 347° |
| 2026-04-22 20:43 | 25.07937 | 121.24033 | 124 ft | 2 kts | 1° |
| 2026-04-22 20:43 | 25.07922 | 121.24031 | 124 ft | 2 kts | 16° |
| 2026-04-22 20:44 | 25.07908 | 121.24025 | 124 ft | 2 kts | 30° |
| 2026-04-22 20:44 | 25.07895 | 121.24015 | 124 ft | 2 kts | 45° |
| 2026-04-22 20:44 | 25.07891 | 121.24010 | 124 ft | 1 kts | 49° |
| 2026-04-22 20:44 | 25.07890 | 121.24009 | 124 ft | 0 kts | 49° |
| 2026-04-22 20:46 | 25.07898 | 121.24018 | 124 ft | 3 kts | 49° |
| 2026-04-22 20:46 | 25.07923 | 121.24050 | 124 ft | 7 kts | 47° |
| 2026-04-22 20:47 | 25.07969 | 121.24109 | 124 ft | 11 kts | 62° |
| 2026-04-22 20:47 | 25.07948 | 121.24197 | 124 ft | 13 kts | 134° |
| 2026-04-22 20:47 | 25.07884 | 121.24271 | 124 ft | 11 kts | 112° |
| 2026-04-22 20:47 | 25.07912 | 121.24351 | 124 ft | 14 kts | 49° |
| 2026-04-22 20:48 | 25.07994 | 121.24451 | 124 ft | 19 kts | 48° |
| 2026-04-22 20:48 | 25.08089 | 121.24573 | 124 ft | 22 kts | 50° |
| 2026-04-22 20:48 | 25.08192 | 121.24709 | 124 ft | 23 kts | 49° |
| 2026-04-22 20:48 | 25.08299 | 121.24846 | 124 ft | 23 kts | 49° |
| 2026-04-22 20:49 | 25.08407 | 121.24980 | 124 ft | 22 kts | 48° |
| 2026-04-22 20:49 | 25.08442 | 121.25074 | 124 ft | 9 kts | 126° |
| 2026-04-22 20:49 | 25.08380 | 121.25133 | 124 ft | 14 kts | 141° |
| 2026-04-22 20:49 | 25.08308 | 121.25159 | 124 ft | 9 kts | 206° |
| 2026-04-22 20:50 | 25.08219 | 121.25063 | 124 ft | 39 kts | 229° |
| 2026-04-22 20:50 | 25.07858 | 121.24604 | 124 ft | 114 kts | 229° |
| 2026-04-22 20:50 | 25.07197 | 121.23763 | 175 ft | 169 kts | 229° |
| 2026-04-22 20:50 | 25.06423 | 121.22753 | 892 ft | 174 kts | 229° |
| 2026-04-22 20:51 | 25.05688 | 121.21738 | 1839 ft | 171 kts | 229° |
| 2026-04-22 20:51 | 25.04959 | 121.20718 | 2635 ft | 174 kts | 229° |
| 2026-04-22 20:51 | 25.04178 | 121.19640 | 3183 ft | 185 kts | 230° |
| 2026-04-22 20:51 | 25.03323 | 121.18470 | 3673 ft | 202 kts | 230° |
| 2026-04-22 20:52 | 25.02364 | 121.17219 | 4139 ft | 221 kts | 230° |
| 2026-04-22 20:52 | 25.01435 | 121.15816 | 4618 ft | 236 kts | 247° |
| 2026-04-22 20:52 | 25.01210 | 121.13947 | 5070 ft | 258 kts | 275° |
| 2026-04-22 20:52 | 25.01911 | 121.12040 | 5509 ft | 280 kts | 302° |
| 2026-04-22 20:53 | 25.03368 | 121.10616 | 6441 ft | 283 kts | 326° |
| 2026-04-22 20:53 | 25.05145 | 121.09686 | 7433 ft | 276 kts | 329° |
| 2026-04-22 20:53 | 25.06902 | 121.08772 | 8171 ft | 277 kts | 329° |
| 2026-04-22 20:53 | 25.08684 | 121.07843 | 8835 ft | 280 kts | 329° |
| 2026-04-22 20:54 | 25.10467 | 121.06918 | 9495 ft | 282 kts | 329° |
| 2026-04-22 20:54 | 25.12269 | 121.05986 | 10143 ft | 286 kts | 329° |
| 2026-04-22 20:54 | 25.14139 | 121.05016 | 10493 ft | 301 kts | 329° |
| 2026-04-22 20:54 | 25.16103 | 121.03999 | 10779 ft | 317 kts | 330° |
| 2026-04-22 20:55 | 25.18336 | 121.03303 | 11079 ft | 344 kts | 353° |
| 2026-04-22 20:55 | 25.20763 | 121.03740 | 11685 ft | 361 kts | 16° |
| 2026-04-22 20:55 | 25.22916 | 121.05226 | 12362 ft | 374 kts | 40° |
| 2026-04-22 20:55 | 25.24585 | 121.07505 | 13028 ft | 379 kts | 50° |
| 2026-04-22 20:56 | 25.26176 | 121.09872 | 13643 ft | 383 kts | 50° |
| 2026-04-22 20:56 | 25.27798 | 121.12256 | 14225 ft | 387 kts | 49° |
| 2026-04-22 20:56 | 25.29449 | 121.14656 | 14789 ft | 391 kts | 49° |
| 2026-04-22 20:56 | 25.31117 | 121.17064 | 15336 ft | 396 kts | 49° |
| 2026-04-22 20:57 | 25.32812 | 121.19504 | 15896 ft | 399 kts | 49° |
| 2026-04-22 20:57 | 25.34520 | 121.21962 | 16429 ft | 403 kts | 49° |
| 2026-04-22 20:57 | 25.36240 | 121.24438 | 16963 ft | 407 kts | 49° |
| 2026-04-22 20:57 | 25.37980 | 121.26942 | 17495 ft | 411 kts | 49° |
| 2026-04-22 20:58 | 25.39689 | 121.29528 | 18014 ft | 417 kts | 56° |
| 2026-04-22 20:58 | 25.40864 | 121.32545 | 18532 ft | 425 kts | 73° |
| 2026-04-22 20:58 | 25.41263 | 121.35766 | 19032 ft | 429 kts | 90° |
| 2026-04-22 20:58 | 25.40863 | 121.39078 | 19538 ft | 431 kts | 106° |
| 2026-04-22 20:59 | 25.40056 | 121.42277 | 20014 ft | 435 kts | 104° |
| 2026-04-22 20:59 | 25.39639 | 121.45612 | 20433 ft | 440 kts | 91° |
| 2026-04-22 20:59 | 25.39625 | 121.49019 | 20919 ft | 443 kts | 88° |
| 2026-04-22 20:59 | 25.39695 | 121.52451 | 21386 ft | 446 kts | 87° |
| 2026-04-22 21:00 | 25.39800 | 121.55893 | 21826 ft | 449 kts | 86° |
| 2026-04-22 21:00 | 25.39918 | 121.59368 | 22263 ft | 452 kts | 86° |
| 2026-04-22 21:00 | 25.40041 | 121.62880 | 22707 ft | 455 kts | 86° |
| 2026-04-22 21:00 | 25.40166 | 121.66416 | 23144 ft | 458 kts | 87° |
| 2026-04-22 21:01 | 25.40288 | 121.69959 | 23577 ft | 460 kts | 87° |
| 2026-04-22 21:01 | 25.40408 | 121.73510 | 23990 ft | 463 kts | 87° |
| 2026-04-22 21:01 | 25.40527 | 121.77086 | 24397 ft | 466 kts | 87° |
| 2026-04-22 21:01 | 25.40646 | 121.80672 | 24795 ft | 469 kts | 87° |
| 2026-04-22 21:02 | 25.40763 | 121.84302 | 25206 ft | 471 kts | 87° |
| 2026-04-22 21:02 | 25.40881 | 121.87929 | 25606 ft | 474 kts | 87° |
| 2026-04-22 21:02 | 25.41001 | 121.91592 | 25969 ft | 477 kts | 88° |
| 2026-04-22 21:02 | 25.41119 | 121.95290 | 26338 ft | 480 kts | 88° |
| 2026-04-22 21:03 | 25.41238 | 121.99007 | 26701 ft | 483 kts | 88° |
| 2026-04-22 21:03 | 25.41357 | 122.02747 | 27059 ft | 486 kts | 88° |
| 2026-04-22 21:03 | 25.41473 | 122.06501 | 27405 ft | 489 kts | 88° |
| 2026-04-22 21:03 | 25.41590 | 122.10268 | 27762 ft | 492 kts | 88° |
| 2026-04-22 21:04 | 25.41707 | 122.14079 | 28122 ft | 494 kts | 88° |
| 2026-04-22 21:04 | 25.41951 | 122.17936 | 28461 ft | 497 kts | 83° |
| 2026-04-22 21:04 | 25.42509 | 122.21679 | 28793 ft | 499 kts | 76° |
| 2026-04-22 21:04 | 25.43417 | 122.25410 | 29145 ft | 500 kts | 70° |
| 2026-04-22 21:05 | 25.44606 | 122.29116 | 29500 ft | 502 kts | 68° |
| 2026-04-22 21:05 | 25.45853 | 122.32761 | 29822 ft | 505 kts | 67° |
| 2026-04-22 21:05 | 25.47104 | 122.36378 | 30140 ft | 507 kts | 67° |
| 2026-04-22 21:05 | 25.48368 | 122.40063 | 30464 ft | 510 kts | 67° |
| 2026-04-22 21:06 | 25.49622 | 122.43761 | 30803 ft | 512 kts | 68° |
| 2026-04-22 21:06 | 25.50884 | 122.47504 | 31118 ft | 514 kts | 67° |
| 2026-04-22 21:06 | 25.52140 | 122.51251 | 31427 ft | 517 kts | 68° |
| 2026-04-22 21:06 | 25.53404 | 122.55026 | 31763 ft | 519 kts | 68° |
| 2026-04-22 21:07 | 25.54662 | 122.58794 | 32066 ft | 521 kts | 68° |
| 2026-04-22 21:07 | 25.55918 | 122.62560 | 32425 ft | 521 kts | 68° |
| 2026-04-22 21:07 | 25.57179 | 122.66347 | 32878 ft | 520 kts | 68° |
| 2026-04-22 21:07 | 25.58433 | 122.70111 | 33359 ft | 518 kts | 68° |
| 2026-04-22 21:08 | 25.59681 | 122.73869 | 33823 ft | 516 kts | 68° |
| 2026-04-22 21:08 | 25.60908 | 122.77563 | 34241 ft | 516 kts | 68° |
| 2026-04-22 21:08 | 25.62152 | 122.81308 | 34614 ft | 516 kts | 68° |
| 2026-04-22 21:08 | 25.63393 | 122.85052 | 34971 ft | 516 kts | 68° |
| 2026-04-22 21:09 | 25.64640 | 122.88796 | 35361 ft | 515 kts | 67° |
| 2026-04-22 21:09 | 25.65901 | 122.92539 | 35733 ft | 514 kts | 67° |
| 2026-04-22 21:09 | 25.67165 | 122.96276 | 36051 ft | 514 kts | 67° |
| 2026-04-22 21:09 | 25.68427 | 123.00009 | 36365 ft | 514 kts | 67° |
| 2026-04-22 21:10 | 25.69687 | 123.03744 | 36678 ft | 514 kts | 67° |
| 2026-04-22 21:10 | 25.70944 | 123.07487 | 36972 ft | 514 kts | 67° |
| 2026-04-22 21:10 | 25.72185 | 123.11179 | 37221 ft | 515 kts | 67° |
| 2026-04-22 21:10 | 25.73453 | 123.14954 | 37466 ft | 516 kts | 67° |
| 2026-04-22 21:11 | 25.74711 | 123.18707 | 37703 ft | 516 kts | 67° |
| 2026-04-22 21:11 | 25.75979 | 123.22488 | 37913 ft | 518 kts | 66° |
| 2026-04-22 21:11 | 25.77232 | 123.26233 | 38107 ft | 519 kts | 66° |
| 2026-04-22 21:11 | 25.78501 | 123.30027 | 38277 ft | 521 kts | 66° |
| 2026-04-22 21:12 | 25.79782 | 123.33865 | 38449 ft | 523 kts | 66° |
| 2026-04-22 21:12 | 25.81057 | 123.37684 | 38647 ft | 524 kts | 67° |
| 2026-04-22 21:12 | 25.82345 | 123.41549 | 38815 ft | 525 kts | 66° |
| 2026-04-22 21:12 | 25.83636 | 123.45428 | 38819 ft | 526 kts | 66° |
| 2026-04-22 21:13 | 25.86564 | 123.52894 | 38820 ft | 520 kts | 54° |
| 2026-04-22 21:13 | 25.90997 | 123.59137 | 38822 ft | 508 kts | 37° |
| 2026-04-22 21:14 | 25.96661 | 123.63742 | 38822 ft | 493 kts | 20° |
| 2026-04-22 21:14 | 26.02857 | 123.67020 | 38823 ft | 490 kts | 17° |
| 2026-04-22 21:15 | 26.09098 | 123.70196 | 38823 ft | 491 kts | 18° |
| 2026-04-22 21:15 | 26.15318 | 123.73420 | 38828 ft | 491 kts | 18° |
| 2026-04-22 21:16 | 26.21609 | 123.76709 | 38833 ft | 492 kts | 18° |
| 2026-04-22 21:16 | 26.27813 | 123.79963 | 38834 ft | 493 kts | 18° |
| 2026-04-22 21:17 | 26.34074 | 123.83253 | 38837 ft | 493 kts | 18° |
| 2026-04-22 21:17 | 26.40351 | 123.86553 | 38829 ft | 493 kts | 18° |
| 2026-04-22 21:18 | 26.46628 | 123.89857 | 38825 ft | 494 kts | 18° |
| 2026-04-22 21:18 | 26.53202 | 123.93326 | 38824 ft | 494 kts | 18° |
| 2026-04-22 21:19 | 26.59642 | 123.96899 | 38822 ft | 500 kts | 22° |
| 2026-04-22 21:19 | 26.65624 | 124.01382 | 38827 ft | 510 kts | 32° |
| 2026-04-22 21:20 | 26.70967 | 124.06854 | 38834 ft | 520 kts | 41° |
| 2026-04-22 21:20 | 26.75786 | 124.13163 | 38832 ft | 523 kts | 45° |
| 2026-04-22 21:21 | 26.80499 | 124.19579 | 38833 ft | 523 kts | 45° |
| 2026-04-22 21:21 | 26.85222 | 124.25954 | 38834 ft | 522 kts | 45° |
| 2026-04-22 21:22 | 26.89994 | 124.32371 | 38832 ft | 523 kts | 45° |
| 2026-04-22 21:22 | 26.94749 | 124.38776 | 38832 ft | 524 kts | 45° |
| 2026-04-22 21:23 | 26.99444 | 124.45104 | 38834 ft | 525 kts | 45° |
| 2026-04-22 21:23 | 27.04262 | 124.51605 | 38832 ft | 527 kts | 45° |
| 2026-04-22 21:24 | 27.08993 | 124.57997 | 38835 ft | 526 kts | 45° |
| 2026-04-22 21:24 | 27.13807 | 124.64513 | 38831 ft | 527 kts | 44° |
| 2026-04-22 21:25 | 27.18633 | 124.71056 | 38831 ft | 526 kts | 45° |
| 2026-04-22 21:25 | 27.23412 | 124.77542 | 38830 ft | 526 kts | 45° |
| 2026-04-22 21:26 | 27.28210 | 124.84068 | 38834 ft | 527 kts | 45° |
| 2026-04-22 21:26 | 27.33019 | 124.90615 | 38831 ft | 528 kts | 45° |
| 2026-04-22 21:27 | 27.37840 | 124.97189 | 38834 ft | 530 kts | 45° |
| 2026-04-22 21:27 | 27.42686 | 125.03776 | 38840 ft | 529 kts | 45° |
| 2026-04-22 21:28 | 27.47490 | 125.10246 | 38840 ft | 529 kts | 45° |
| 2026-04-22 21:28 | 27.52302 | 125.16736 | 38838 ft | 529 kts | 45° |
| 2026-04-22 21:29 | 27.57073 | 125.23189 | 38833 ft | 530 kts | 45° |
| 2026-04-22 21:29 | 27.61853 | 125.29667 | 38817 ft | 530 kts | 44° |
| 2026-04-22 21:30 | 27.66683 | 125.36217 | 38820 ft | 532 kts | 45° |
| 2026-04-22 21:30 | 27.71477 | 125.42735 | 38812 ft | 533 kts | 45° |
| 2026-04-22 21:31 | 27.76267 | 125.49258 | 38811 ft | 532 kts | 44° |
| 2026-04-22 21:31 | 27.81033 | 125.55752 | 38820 ft | 533 kts | 44° |
| 2026-04-22 21:32 | 27.85837 | 125.62309 | 38817 ft | 533 kts | 45° |
| 2026-04-22 21:32 | 27.90609 | 125.68838 | 38816 ft | 533 kts | 45° |
| 2026-04-22 21:33 | 27.95369 | 125.75356 | 38823 ft | 533 kts | 45° |
| 2026-04-22 21:33 | 28.00114 | 125.81864 | 38823 ft | 535 kts | 45° |
| 2026-04-22 21:34 | 28.04850 | 125.88372 | 38824 ft | 535 kts | 45° |
| 2026-04-22 21:34 | 28.09593 | 125.94905 | 38824 ft | 533 kts | 45° |
| 2026-04-22 21:35 | 28.14346 | 126.01451 | 38818 ft | 534 kts | 45° |
| 2026-04-22 21:35 | 28.19094 | 126.07999 | 38818 ft | 535 kts | 45° |
| 2026-04-22 21:36 | 28.23823 | 126.14535 | 38812 ft | 536 kts | 45° |
| 2026-04-22 21:36 | 28.28570 | 126.21109 | 38813 ft | 536 kts | 45° |
| 2026-04-22 21:37 | 28.33349 | 126.27738 | 38809 ft | 536 kts | 45° |
| 2026-04-22 21:37 | 28.38163 | 126.34422 | 38802 ft | 536 kts | 45° |
| 2026-04-22 21:38 | 28.43037 | 126.41195 | 38799 ft | 536 kts | 45° |
| 2026-04-22 21:38 | 28.47829 | 126.47871 | 38794 ft | 536 kts | 45° |
| 2026-04-22 21:39 | 28.52613 | 126.54549 | 38791 ft | 537 kts | 45° |
| 2026-04-22 21:39 | 28.57340 | 126.61158 | 38790 ft | 536 kts | 45° |
| 2026-04-22 21:40 | 28.62124 | 126.67851 | 38785 ft | 536 kts | 45° |
| 2026-04-22 21:40 | 28.66880 | 126.74519 | 38788 ft | 536 kts | 45° |
| 2026-04-22 21:41 | 28.71659 | 126.81229 | 38786 ft | 537 kts | 45° |
| 2026-04-22 21:41 | 28.76465 | 126.87989 | 38790 ft | 538 kts | 45° |
| 2026-04-22 21:42 | 28.81292 | 126.94793 | 38786 ft | 537 kts | 45° |
| 2026-04-22 21:42 | 28.86109 | 127.01594 | 38784 ft | 537 kts | 45° |
| 2026-04-22 21:43 | 28.90963 | 127.08448 | 38783 ft | 538 kts | 45° |
| 2026-04-22 21:43 | 28.95856 | 127.15378 | 38778 ft | 537 kts | 45° |
| 2026-04-22 21:44 | 29.00675 | 127.22209 | 38778 ft | 537 kts | 45° |
| 2026-04-22 21:44 | 29.05447 | 127.28983 | 38776 ft | 538 kts | 45° |
| 2026-04-22 21:45 | 29.10242 | 127.35809 | 38767 ft | 538 kts | 45° |
| 2026-04-22 21:45 | 29.15027 | 127.42627 | 38765 ft | 540 kts | 45° |
| 2026-04-22 21:46 | 29.19825 | 127.49476 | 38761 ft | 540 kts | 45° |
| 2026-04-22 21:46 | 29.24660 | 127.56393 | 38759 ft | 539 kts | 45° |
| 2026-04-22 21:47 | 29.29384 | 127.63159 | 38761 ft | 539 kts | 45° |
| 2026-04-22 21:47 | 29.34175 | 127.70031 | 38754 ft | 540 kts | 46° |
| 2026-04-22 21:48 | 29.38953 | 127.76898 | 38755 ft | 540 kts | 46° |
| 2026-04-22 21:48 | 29.43779 | 127.83846 | 38755 ft | 540 kts | 46° |
| 2026-04-22 21:49 | 29.48579 | 127.90765 | 38752 ft | 541 kts | 46° |
| 2026-04-22 21:49 | 29.53314 | 127.97611 | 38745 ft | 540 kts | 46° |
| 2026-04-22 21:50 | 29.58037 | 128.04433 | 38735 ft | 539 kts | 46° |
| 2026-04-22 21:50 | 29.62751 | 128.11261 | 38733 ft | 539 kts | 46° |
| 2026-04-22 21:51 | 29.67499 | 128.18132 | 38736 ft | 540 kts | 47° |
| 2026-04-22 21:52 | 29.74603 | 128.28461 | 38730 ft | 541 kts | 47° |
| 2026-04-22 21:52 | 29.79338 | 128.35355 | 38725 ft | 541 kts | 46° |
| 2026-04-22 21:53 | 29.84142 | 128.42363 | 38722 ft | 539 kts | 47° |
| 2026-04-22 21:53 | 29.88843 | 128.49225 | 38723 ft | 541 kts | 47° |
| 2026-04-22 21:54 | 29.93564 | 128.56143 | 38728 ft | 540 kts | 47° |
| 2026-04-22 21:54 | 29.98255 | 128.63023 | 38726 ft | 539 kts | 46° |
| 2026-04-22 21:55 | 30.03003 | 128.69989 | 38711 ft | 540 kts | 47° |
| 2026-04-22 21:55 | 30.07800 | 128.77042 | 38706 ft | 541 kts | 48° |
| 2026-04-22 21:56 | 30.12550 | 128.84050 | 38702 ft | 541 kts | 48° |
| 2026-04-22 21:56 | 30.17288 | 128.91054 | 38705 ft | 541 kts | 47° |
| 2026-04-22 21:57 | 30.22032 | 128.98064 | 38709 ft | 542 kts | 48° |
| 2026-04-22 21:57 | 30.26814 | 129.05147 | 38711 ft | 542 kts | 47° |
| 2026-04-22 21:58 | 30.31548 | 129.12178 | 38710 ft | 542 kts | 48° |
| 2026-04-22 21:58 | 30.36253 | 129.19174 | 38697 ft | 542 kts | 48° |
| 2026-04-22 21:58 | 30.38575 | 129.22629 | 38371 ft | 544 kts | 48° |
| 2026-04-22 21:59 | 30.40914 | 129.26115 | 37883 ft | 543 kts | 48° |
| 2026-04-22 21:59 | 30.43247 | 129.29591 | 37350 ft | 543 kts | 49° |
| 2026-04-22 21:59 | 30.45545 | 129.33020 | 36819 ft | 543 kts | 49° |
| 2026-04-22 21:59 | 30.47897 | 129.36531 | 36262 ft | 543 kts | 49° |
| 2026-04-22 22:00 | 30.50246 | 129.40044 | 35690 ft | 543 kts | 49° |
| 2026-04-22 22:00 | 30.52635 | 129.43614 | 35068 ft | 543 kts | 49° |
| 2026-04-22 22:00 | 30.55010 | 129.47174 | 34466 ft | 543 kts | 49° |
| 2026-04-22 22:00 | 30.57368 | 129.50714 | 33884 ft | 542 kts | 50° |
| 2026-04-22 22:01 | 30.59726 | 129.54248 | 33283 ft | 541 kts | 50° |
| 2026-04-22 22:01 | 30.62043 | 129.57730 | 32711 ft | 541 kts | 50° |
| 2026-04-22 22:01 | 30.64411 | 129.61291 | 32115 ft | 541 kts | 50° |
| 2026-04-22 22:01 | 30.66773 | 129.64848 | 31496 ft | 541 kts | 50° |
| 2026-04-22 22:02 | 30.69080 | 129.68324 | 31058 ft | 535 kts | 51° |
| 2026-04-22 22:02 | 30.71375 | 129.71785 | 30660 ft | 530 kts | 51° |
| 2026-04-22 22:02 | 30.73623 | 129.75179 | 30270 ft | 524 kts | 51° |
| 2026-04-22 22:02 | 30.75884 | 129.78592 | 29895 ft | 518 kts | 51° |
| 2026-04-22 22:03 | 30.78088 | 129.81929 | 29599 ft | 513 kts | 51° |
| 2026-04-22 22:03 | 30.80314 | 129.85297 | 29259 ft | 512 kts | 51° |
| 2026-04-22 22:03 | 30.82610 | 129.88579 | 28867 ft | 507 kts | 42° |
| 2026-04-22 22:03 | 30.85466 | 129.91014 | 28482 ft | 492 kts | 22° |
| 2026-04-22 22:04 | 30.88694 | 129.92278 | 28104 ft | 473 kts | 3° |
| 2026-04-22 22:04 | 30.91972 | 129.92685 | 27745 ft | 463 kts | 357° |
| 2026-04-22 22:04 | 30.95166 | 129.92955 | 27373 ft | 459 kts | 357° |
| 2026-04-22 22:04 | 30.98365 | 129.93231 | 26994 ft | 456 kts | 357° |
| 2026-04-22 22:05 | 31.01529 | 129.93529 | 26621 ft | 453 kts | 358° |
| 2026-04-22 22:05 | 31.04720 | 129.93851 | 26236 ft | 450 kts | 358° |
| 2026-04-22 22:05 | 31.07878 | 129.94185 | 25856 ft | 447 kts | 358° |
| 2026-04-22 22:05 | 31.10999 | 129.94525 | 25473 ft | 444 kts | 358° |
| 2026-04-22 22:06 | 31.14082 | 129.94864 | 25083 ft | 440 kts | 358° |
| 2026-04-22 22:06 | 31.17180 | 129.95204 | 24694 ft | 437 kts | 358° |
| 2026-04-22 22:06 | 31.20210 | 129.95537 | 24321 ft | 434 kts | 358° |
| 2026-04-22 22:06 | 31.23272 | 129.95874 | 23950 ft | 430 kts | 358° |
| 2026-04-22 22:07 | 31.26237 | 129.96236 | 23595 ft | 429 kts | 1° |
| 2026-04-22 22:07 | 31.29238 | 129.96989 | 23226 ft | 433 kts | 9° |
| 2026-04-22 22:07 | 31.32067 | 129.98172 | 22864 ft | 435 kts | 17° |
| 2026-04-22 22:07 | 31.34857 | 129.99651 | 22509 ft | 433 kts | 19° |
| 2026-04-22 22:08 | 31.37577 | 130.01157 | 22152 ft | 431 kts | 20° |
| 2026-04-22 22:08 | 31.40333 | 130.02693 | 21776 ft | 428 kts | 19° |
| 2026-04-22 22:08 | 31.43005 | 130.04169 | 21425 ft | 425 kts | 19° |
| 2026-04-22 22:08 | 31.45708 | 130.05655 | 21060 ft | 422 kts | 19° |
| 2026-04-22 22:09 | 31.48391 | 130.07123 | 20690 ft | 420 kts | 19° |
| 2026-04-22 22:09 | 31.51055 | 130.08577 | 20327 ft | 417 kts | 19° |
| 2026-04-22 22:09 | 31.53701 | 130.10025 | 19972 ft | 415 kts | 19° |
| 2026-04-22 22:09 | 31.56341 | 130.11467 | 19608 ft | 413 kts | 19° |
| 2026-04-22 22:10 | 31.58960 | 130.12900 | 19249 ft | 411 kts | 19° |
| 2026-04-22 22:10 | 31.61542 | 130.14314 | 18900 ft | 409 kts | 19° |
| 2026-04-22 22:10 | 31.64153 | 130.15742 | 18531 ft | 407 kts | 19° |
| 2026-04-22 22:10 | 31.66711 | 130.17143 | 18173 ft | 405 kts | 19° |
| 2026-04-22 22:11 | 31.69289 | 130.18556 | 17817 ft | 403 kts | 19° |
| 2026-04-22 22:11 | 31.71808 | 130.19942 | 17459 ft | 401 kts | 19° |
| 2026-04-22 22:11 | 31.74361 | 130.21344 | 17106 ft | 399 kts | 19° |
| 2026-04-22 22:11 | 31.76925 | 130.22754 | 16742 ft | 397 kts | 19° |
| 2026-04-22 22:12 | 31.79474 | 130.24152 | 16384 ft | 395 kts | 19° |
| 2026-04-22 22:12 | 31.81990 | 130.25539 | 16017 ft | 393 kts | 19° |
| 2026-04-22 22:12 | 31.84484 | 130.26914 | 15638 ft | 390 kts | 19° |
| 2026-04-22 22:12 | 31.86979 | 130.28287 | 15287 ft | 388 kts | 19° |
| 2026-04-22 22:13 | 31.89441 | 130.29645 | 14933 ft | 388 kts | 20° |
| 2026-04-22 22:13 | 31.91930 | 130.31020 | 14564 ft | 386 kts | 20° |
| 2026-04-22 22:13 | 31.94406 | 130.32385 | 14198 ft | 385 kts | 20° |
| 2026-04-22 22:13 | 31.96903 | 130.33765 | 13823 ft | 384 kts | 20° |
| 2026-04-22 22:14 | 31.99350 | 130.35117 | 13476 ft | 382 kts | 20° |
| 2026-04-22 22:14 | 32.01827 | 130.36487 | 13099 ft | 380 kts | 20° |
| 2026-04-22 22:14 | 32.04289 | 130.37849 | 12746 ft | 379 kts | 20° |
| 2026-04-22 22:14 | 32.06712 | 130.39189 | 12391 ft | 377 kts | 20° |
| 2026-04-22 22:15 | 32.09115 | 130.40518 | 12039 ft | 375 kts | 21° |
| 2026-04-22 22:15 | 32.11554 | 130.41872 | 11675 ft | 373 kts | 20° |
| 2026-04-22 22:15 | 32.13938 | 130.43196 | 11323 ft | 371 kts | 20° |
| 2026-04-22 22:15 | 32.16319 | 130.44516 | 10965 ft | 370 kts | 20° |
| 2026-04-22 22:16 | 32.18689 | 130.45833 | 10603 ft | 368 kts | 20° |
| 2026-04-22 22:16 | 32.21050 | 130.47147 | 10248 ft | 366 kts | 20° |
| 2026-04-22 22:16 | 32.23341 | 130.48421 | 9992 ft | 360 kts | 21° |
| 2026-04-22 22:16 | 32.25623 | 130.49692 | 9954 ft | 347 kts | 21° |
| 2026-04-22 22:17 | 32.27816 | 130.50914 | 9919 ft | 335 kts | 21° |
| 2026-04-22 22:17 | 32.29975 | 130.51886 | 9848 ft | 319 kts | 6° |
| 2026-04-22 22:17 | 32.32193 | 130.52104 | 9608 ft | 308 kts | 352° |
| 2026-04-22 22:17 | 32.34367 | 130.51952 | 9339 ft | 305 kts | 349° |
| 2026-04-22 22:18 | 32.36517 | 130.51758 | 9053 ft | 304 kts | 350° |
| 2026-04-22 22:18 | 32.38683 | 130.51584 | 8763 ft | 305 kts | 351° |
| 2026-04-22 22:18 | 32.40852 | 130.51407 | 8475 ft | 303 kts | 349° |
| 2026-04-22 22:18 | 32.42990 | 130.51190 | 8211 ft | 301 kts | 349° |
| 2026-04-22 22:19 | 32.45114 | 130.50960 | 7944 ft | 299 kts | 350° |
| 2026-04-22 22:19 | 32.47190 | 130.50738 | 7673 ft | 297 kts | 351° |
| 2026-04-22 22:19 | 32.49280 | 130.50516 | 7411 ft | 296 kts | 351° |
| 2026-04-22 22:19 | 32.51359 | 130.50301 | 7139 ft | 295 kts | 351° |
| 2026-04-22 22:20 | 32.53398 | 130.50092 | 6878 ft | 294 kts | 351° |
| 2026-04-22 22:20 | 32.55467 | 130.49878 | 6602 ft | 293 kts | 351° |
| 2026-04-22 22:20 | 32.57520 | 130.49667 | 6351 ft | 291 kts | 351° |
| 2026-04-22 22:20 | 32.59537 | 130.49457 | 6115 ft | 291 kts | 351° |
| 2026-04-22 22:21 | 32.61566 | 130.49246 | 5988 ft | 284 kts | 353° |
| 2026-04-22 22:21 | 32.63544 | 130.49043 | 5973 ft | 273 kts | 352° |
| 2026-04-22 22:21 | 32.65453 | 130.48850 | 5982 ft | 263 kts | 353° |
| 2026-04-22 22:21 | 32.67273 | 130.48677 | 5973 ft | 252 kts | 357° |
| 2026-04-22 22:22 | 32.68938 | 130.49155 | 5952 ft | 241 kts | 36° |
| 2026-04-22 22:22 | 32.70005 | 130.50665 | 5794 ft | 231 kts | 66° |
| 2026-04-22 22:22 | 32.70647 | 130.52428 | 5583 ft | 226 kts | 70° |
| 2026-04-22 22:22 | 32.71260 | 130.54141 | 5347 ft | 223 kts | 69° |
| 2026-04-22 22:23 | 32.71896 | 130.55839 | 5123 ft | 219 kts | 68° |
| 2026-04-22 22:23 | 32.72535 | 130.57494 | 4881 ft | 216 kts | 68° |
| 2026-04-22 22:23 | 32.73174 | 130.59122 | 4652 ft | 212 kts | 67° |
| 2026-04-22 22:23 | 32.73804 | 130.60707 | 4434 ft | 208 kts | 66° |
| 2026-04-22 22:24 | 32.74428 | 130.62271 | 4214 ft | 205 kts | 66° |
| 2026-04-22 22:24 | 32.75035 | 130.63788 | 3999 ft | 201 kts | 66° |
| 2026-04-22 22:24 | 32.75640 | 130.65300 | 3782 ft | 197 kts | 66° |
| 2026-04-22 22:24 | 32.76234 | 130.66782 | 3590 ft | 192 kts | 66° |
| 2026-04-22 22:25 | 32.76801 | 130.68196 | 3455 ft | 185 kts | 66° |
| 2026-04-22 22:25 | 32.77347 | 130.69560 | 3208 ft | 178 kts | 66° |
| 2026-04-22 22:25 | 32.77870 | 130.70866 | 2979 ft | 175 kts | 66° |
| 2026-04-22 22:25 | 32.78396 | 130.72182 | 2747 ft | 171 kts | 65° |
| 2026-04-22 22:26 | 32.78896 | 130.73431 | 2515 ft | 165 kts | 65° |
| 2026-04-22 22:26 | 32.79377 | 130.74631 | 2299 ft | 157 kts | 65° |
| 2026-04-22 22:26 | 32.79846 | 130.75804 | 2101 ft | 155 kts | 65° |
| 2026-04-22 22:26 | 32.80310 | 130.76962 | 1909 ft | 155 kts | 65° |
| 2026-04-22 22:27 | 32.80765 | 130.78101 | 1704 ft | 148 kts | 65° |
| 2026-04-22 22:27 | 32.81208 | 130.79207 | 1515 ft | 147 kts | 65° |
| 2026-04-22 22:27 | 32.81649 | 130.80306 | 1323 ft | 148 kts | 65° |
| 2026-04-22 22:27 | 32.82090 | 130.81406 | 1115 ft | 148 kts | 65° |
| 2026-04-22 22:28 | 32.82537 | 130.82510 | 915 ft | 148 kts | 65° |
| 2026-04-22 22:28 | 32.82983 | 130.83633 | 762 ft | 149 kts | 64° |
| 2026-04-22 22:28 | 32.83430 | 130.84753 | 642 ft | 146 kts | 64° |
| 2026-04-22 22:28 | 32.83818 | 130.85718 | 647 ft | 97 kts | 66° |
| 2026-04-22 22:29 | 32.84010 | 130.86200 | 654 ft | 51 kts | 64° |
| 2026-04-22 22:29 | 32.84124 | 130.86485 | 654 ft | 33 kts | 65° |
| 2026-04-22 22:29 | 32.84218 | 130.86720 | 655 ft | 30 kts | 65° |
| 2026-04-22 22:29 | 32.84283 | 130.86912 | 657 ft | 16 kts | 92° |
| 2026-04-22 22:30 | 32.84228 | 130.86987 | 656 ft | 13 kts | 153° |
| 2026-04-22 22:30 | 32.84152 | 130.86986 | 654 ft | 12 kts | 223° |
| 2026-04-22 22:30 | 32.84101 | 130.86883 | 652 ft | 15 kts | 244° |
| 2026-04-22 22:30 | 32.84049 | 130.86754 | 649 ft | 18 kts | 245° |
| 2026-04-22 22:31 | 32.83989 | 130.86607 | 646 ft | 20 kts | 244° |
| 2026-04-22 22:31 | 32.83931 | 130.86464 | 647 ft | 19 kts | 245° |
| 2026-04-22 22:31 | 32.83874 | 130.86320 | 649 ft | 18 kts | 244° |
| 2026-04-22 22:31 | 32.83818 | 130.86182 | 650 ft | 18 kts | 244° |
| 2026-04-22 22:32 | 32.83765 | 130.86049 | 651 ft | 17 kts | 244° |
| 2026-04-22 22:32 | 32.83715 | 130.85922 | 649 ft | 13 kts | 245° |
| 2026-04-22 22:32 | 32.83694 | 130.85870 | 648 ft | 6 kts | 244° |
| 2026-04-22 22:32 | 32.83666 | 130.85854 | 648 ft | 5 kts | 177° |
| 2026-04-22 22:33 | 32.83630 | 130.85866 | 650 ft | 4 kts | 154° |
| 2026-04-22 22:33 | 32.83608 | 130.85881 | 651 ft | 3 kts | 151° |
| 2026-04-22 22:33 | 32.83589 | 130.85893 | 652 ft | 2 kts | 151° |
| 2026-04-22 22:33 | 32.83576 | 130.85901 | 653 ft | 1 kts | 152° |
| 2026-04-22 22:34 | 32.83567 | 130.85907 | 653 ft | 0 kts | 152° |
| 2026-04-22 22:34 | 32.83563 | 130.85908 | 653 ft | 0 kts | 152° |